sensor_id;sensor_type;location;lat;lon;timestamp;P1;durP1;ratioP1;P2;durP2;ratioP2
6785;SDS011;3430;51.192;6.048;2023-05-02T00:02:00;4.83;;;4.10;;
6785;SDS011;3430;51.192;6.048;2023-05-02T00:04:25;4.40;;;4.00;;
6785;SDS011;3430;51.192;6.048;2023-05-02T00:06:51;6.20;;;4.50;;
6785;SDS011;3430;51.192;6.048;2023-05-02T00:09:17;5.07;;;4.47;;
6785;SDS011;3430;51.192;6.048;2023-05-02T00:11:42;5.73;;;3.90;;
6785;SDS011;3430;51.192;6.048;2023-05-02T00:14:07;5.47;;;4.43;;
6785;SDS011;3430;51.192;6.048;2023-05-02T00:16:33;5.00;;;4.50;;
6785;SDS011;3430;51.192;6.048;2023-05-02T00:18:58;5.13;;;4.63;;
6785;SDS011;3430;51.192;6.048;2023-05-02T00:21:23;4.27;;;3.87;;
6785;SDS011;3430;51.192;6.048;2023-05-02T00:23:49;6.63;;;4.90;;
6785;SDS011;3430;51.192;6.048;2023-05-02T00:26:15;7.27;;;5.43;;
6785;SDS011;3430;51.192;6.048;2023-05-02T00:28:40;6.47;;;5.00;;
6785;SDS011;3430;51.192;6.048;2023-05-02T00:31:05;6.40;;;5.00;;
6785;SDS011;3430;51.192;6.048;2023-05-02T00:33:30;5.13;;;4.60;;
6785;SDS011;3430;51.192;6.048;2023-05-02T00:35:56;7.03;;;4.73;;
6785;SDS011;3430;51.192;6.048;2023-05-02T00:38:21;5.07;;;4.57;;
6785;SDS011;3430;51.192;6.048;2023-05-02T00:40:47;9.87;;;5.43;;
6785;SDS011;3430;51.192;6.048;2023-05-02T00:43:13;5.33;;;4.70;;
6785;SDS011;3430;51.192;6.048;2023-05-02T00:45:38;6.17;;;4.83;;
6785;SDS011;3430;51.192;6.048;2023-05-02T00:48:05;6.50;;;5.40;;
6785;SDS011;3430;51.192;6.048;2023-05-02T00:50:30;7.27;;;4.70;;
6785;SDS011;3430;51.192;6.048;2023-05-02T00:52:56;5.47;;;4.90;;
6785;SDS011;3430;51.192;6.048;2023-05-02T00:55:23;5.33;;;4.43;;
6785;SDS011;3430;51.192;6.048;2023-05-02T00:57:49;6.73;;;5.17;;
6785;SDS011;3430;51.192;6.048;2023-05-02T01:00:14;5.63;;;4.27;;
6785;SDS011;3430;51.192;6.048;2023-05-02T01:02:42;7.20;;;6.00;;
6785;SDS011;3430;51.192;6.048;2023-05-02T01:05:16;6.23;;;4.93;;
6785;SDS011;3430;51.192;6.048;2023-05-02T01:12:41;5.53;;;4.87;;
6785;SDS011;3430;51.192;6.048;2023-05-02T01:15:08;5.97;;;4.57;;
6785;SDS011;3430;51.192;6.048;2023-05-02T01:17:34;7.83;;;5.37;;
6785;SDS011;3430;51.192;6.048;2023-05-02T01:20:02;5.77;;;4.80;;
6785;SDS011;3430;51.192;6.048;2023-05-02T01:22:29;7.00;;;4.67;;
6785;SDS011;3430;51.192;6.048;2023-05-02T01:29:55;5.13;;;4.63;;
6785;SDS011;3430;51.192;6.048;2023-05-02T01:32:22;6.67;;;4.73;;
6785;SDS011;3430;51.192;6.048;2023-05-02T01:34:47;5.03;;;4.43;;
6785;SDS011;3430;51.192;6.048;2023-05-02T01:37:13;6.37;;;5.50;;
6785;SDS011;3430;51.192;6.048;2023-05-02T01:39:39;5.63;;;4.90;;
6785;SDS011;3430;51.192;6.048;2023-05-02T01:42:06;6.70;;;4.90;;
6785;SDS011;3430;51.192;6.048;2023-05-02T01:44:31;6.93;;;4.90;;
6785;SDS011;3430;51.192;6.048;2023-05-02T01:46:59;6.47;;;5.00;;
6785;SDS011;3430;51.192;6.048;2023-05-02T01:49:27;6.93;;;5.00;;
6785;SDS011;3430;51.192;6.048;2023-05-02T01:51:53;5.20;;;4.50;;
6785;SDS011;3430;51.192;6.048;2023-05-02T01:54:19;5.17;;;4.67;;
6785;SDS011;3430;51.192;6.048;2023-05-02T01:56:45;5.03;;;4.53;;
6785;SDS011;3430;51.192;6.048;2023-05-02T01:59:11;5.60;;;4.63;;
6785;SDS011;3430;51.192;6.048;2023-05-02T02:01:38;7.47;;;5.47;;
6785;SDS011;3430;51.192;6.048;2023-05-02T02:04:03;5.47;;;4.10;;
6785;SDS011;3430;51.192;6.048;2023-05-02T02:06:30;4.60;;;3.90;;
6785;SDS011;3430;51.192;6.048;2023-05-02T02:08:56;6.37;;;4.53;;
6785;SDS011;3430;51.192;6.048;2023-05-02T02:11:24;6.77;;;5.40;;
6785;SDS011;3430;51.192;6.048;2023-05-02T02:13:52;7.23;;;5.77;;
6785;SDS011;3430;51.192;6.048;2023-05-02T02:16:20;5.27;;;4.47;;
6785;SDS011;3430;51.192;6.048;2023-05-02T02:18:48;5.80;;;4.40;;
6785;SDS011;3430;51.192;6.048;2023-05-02T02:21:16;7.60;;;4.67;;
6785;SDS011;3430;51.192;6.048;2023-05-02T02:23:42;5.60;;;5.00;;
6785;SDS011;3430;51.192;6.048;2023-05-02T02:26:10;6.60;;;4.63;;
6785;SDS011;3430;51.192;6.048;2023-05-02T02:28:36;5.17;;;4.10;;
6785;SDS011;3430;51.192;6.048;2023-05-02T02:31:02;7.27;;;5.30;;
6785;SDS011;3430;51.192;6.048;2023-05-02T02:33:28;5.83;;;5.00;;
6785;SDS011;3430;51.192;6.048;2023-05-02T02:35:57;5.27;;;3.90;;
6785;SDS011;3430;51.192;6.048;2023-05-02T02:38:29;5.97;;;4.57;;
6785;SDS011;3430;51.192;6.048;2023-05-02T02:40:59;4.87;;;4.40;;
6785;SDS011;3430;51.192;6.048;2023-05-02T02:43:32;5.30;;;4.13;;
6785;SDS011;3430;51.192;6.048;2023-05-02T02:48:44;5.87;;;4.20;;
6785;SDS011;3430;51.192;6.048;2023-05-02T02:51:13;4.67;;;4.00;;
6785;SDS011;3430;51.192;6.048;2023-05-02T02:56:40;6.77;;;3.90;;
6785;SDS011;3430;51.192;6.048;2023-05-02T02:59:18;5.77;;;4.03;;
6785;SDS011;3430;51.192;6.048;2023-05-02T03:01:45;3.97;;;3.53;;
6785;SDS011;3430;51.192;6.048;2023-05-02T03:04:13;6.33;;;4.27;;
6785;SDS011;3430;51.192;6.048;2023-05-02T03:06:40;7.43;;;4.40;;
6785;SDS011;3430;51.192;6.048;2023-05-02T03:09:06;4.10;;;3.70;;
6785;SDS011;3430;51.192;6.048;2023-05-02T03:11:38;5.03;;;4.17;;
6785;SDS011;3430;51.192;6.048;2023-05-02T03:14:03;5.40;;;3.77;;
6785;SDS011;3430;51.192;6.048;2023-05-02T03:18:54;4.87;;;4.37;;
6785;SDS011;3430;51.192;6.048;2023-05-02T03:21:20;5.57;;;4.33;;
6785;SDS011;3430;51.192;6.048;2023-05-02T03:23:45;4.30;;;3.80;;
6785;SDS011;3430;51.192;6.048;2023-05-02T03:26:10;4.90;;;4.30;;
6785;SDS011;3430;51.192;6.048;2023-05-02T03:28:36;4.57;;;4.00;;
6785;SDS011;3430;51.192;6.048;2023-05-02T03:31:01;4.27;;;3.87;;
6785;SDS011;3430;51.192;6.048;2023-05-02T03:33:26;4.90;;;4.03;;
6785;SDS011;3430;51.192;6.048;2023-05-02T03:35:52;5.47;;;4.30;;
6785;SDS011;3430;51.192;6.048;2023-05-02T03:38:17;5.03;;;3.87;;
6785;SDS011;3430;51.192;6.048;2023-05-02T03:40:43;6.97;;;4.53;;
6785;SDS011;3430;51.192;6.048;2023-05-02T03:43:08;4.67;;;4.00;;
6785;SDS011;3430;51.192;6.048;2023-05-02T03:45:33;5.03;;;4.30;;
6785;SDS011;3430;51.192;6.048;2023-05-02T03:48:01;5.63;;;4.60;;
6785;SDS011;3430;51.192;6.048;2023-05-02T03:50:27;4.43;;;4.00;;
6785;SDS011;3430;51.192;6.048;2023-05-02T03:52:52;4.67;;;3.57;;
6785;SDS011;3430;51.192;6.048;2023-05-02T03:55:18;4.93;;;3.80;;
6785;SDS011;3430;51.192;6.048;2023-05-02T03:57:43;4.03;;;3.63;;
6785;SDS011;3430;51.192;6.048;2023-05-02T04:00:08;4.20;;;3.80;;
6785;SDS011;3430;51.192;6.048;2023-05-02T04:02:34;4.33;;;3.93;;
6785;SDS011;3430;51.192;6.048;2023-05-02T04:04:59;5.07;;;4.20;;
6785;SDS011;3430;51.192;6.048;2023-05-02T04:07:24;4.23;;;3.73;;
6785;SDS011;3430;51.192;6.048;2023-05-02T04:09:50;3.90;;;3.50;;
6785;SDS011;3430;51.192;6.048;2023-05-02T04:12:15;5.67;;;5.00;;
6785;SDS011;3430;51.192;6.048;2023-05-02T04:14:41;4.30;;;3.50;;
6785;SDS011;3430;51.192;6.048;2023-05-02T04:17:06;4.27;;;3.60;;
6785;SDS011;3430;51.192;6.048;2023-05-02T04:19:32;4.70;;;3.60;;
6785;SDS011;3430;51.192;6.048;2023-05-02T04:21:57;4.70;;;4.00;;
6785;SDS011;3430;51.192;6.048;2023-05-02T04:24:23;4.37;;;3.83;;
6785;SDS011;3430;51.192;6.048;2023-05-02T04:26:48;5.57;;;4.07;;
6785;SDS011;3430;51.192;6.048;2023-05-02T04:29:14;6.13;;;3.67;;
6785;SDS011;3430;51.192;6.048;2023-05-02T04:31:39;4.60;;;3.70;;
6785;SDS011;3430;51.192;6.048;2023-05-02T04:34:05;4.13;;;3.50;;
6785;SDS011;3430;51.192;6.048;2023-05-02T04:36:30;5.37;;;3.93;;
6785;SDS011;3430;51.192;6.048;2023-05-02T04:38:56;5.00;;;4.00;;
6785;SDS011;3430;51.192;6.048;2023-05-02T04:41:21;5.57;;;3.93;;
6785;SDS011;3430;51.192;6.048;2023-05-02T04:43:47;5.63;;;4.70;;
6785;SDS011;3430;51.192;6.048;2023-05-02T04:46:12;5.40;;;3.93;;
6785;SDS011;3430;51.192;6.048;2023-05-02T04:48:37;5.10;;;3.77;;
6785;SDS011;3430;51.192;6.048;2023-05-02T04:51:06;4.33;;;3.93;;
6785;SDS011;3430;51.192;6.048;2023-05-02T04:53:31;4.83;;;3.93;;
6785;SDS011;3430;51.192;6.048;2023-05-02T04:55:57;5.33;;;4.23;;
6785;SDS011;3430;51.192;6.048;2023-05-02T04:58:22;4.77;;;3.93;;
6785;SDS011;3430;51.192;6.048;2023-05-02T05:00:48;4.23;;;3.73;;
6785;SDS011;3430;51.192;6.048;2023-05-02T05:03:13;4.50;;;3.90;;
6785;SDS011;3430;51.192;6.048;2023-05-02T05:05:38;5.17;;;3.97;;
6785;SDS011;3430;51.192;6.048;2023-05-02T05:08:03;4.17;;;3.63;;
6785;SDS011;3430;51.192;6.048;2023-05-02T05:10:29;4.37;;;3.77;;
6785;SDS011;3430;51.192;6.048;2023-05-02T05:12:54;4.23;;;3.83;;
6785;SDS011;3430;51.192;6.048;2023-05-02T05:15:19;6.20;;;4.10;;
6785;SDS011;3430;51.192;6.048;2023-05-02T05:17:46;4.30;;;3.57;;
6785;SDS011;3430;51.192;6.048;2023-05-02T05:20:11;4.13;;;3.70;;
6785;SDS011;3430;51.192;6.048;2023-05-02T05:22:37;4.30;;;3.90;;
6785;SDS011;3430;51.192;6.048;2023-05-02T05:25:03;5.07;;;3.90;;
6785;SDS011;3430;51.192;6.048;2023-05-02T05:27:28;4.37;;;3.97;;
6785;SDS011;3430;51.192;6.048;2023-05-02T05:29:54;5.43;;;3.93;;
6785;SDS011;3430;51.192;6.048;2023-05-02T05:32:19;3.97;;;3.60;;
6785;SDS011;3430;51.192;6.048;2023-05-02T05:34:46;4.40;;;4.00;;
6785;SDS011;3430;51.192;6.048;2023-05-02T05:37:15;5.87;;;4.20;;
6785;SDS011;3430;51.192;6.048;2023-05-02T05:39:40;4.70;;;3.83;;
6785;SDS011;3430;51.192;6.048;2023-05-02T05:42:06;3.90;;;3.50;;
6785;SDS011;3430;51.192;6.048;2023-05-02T05:44:33;3.90;;;3.50;;
6785;SDS011;3430;51.192;6.048;2023-05-02T05:46:59;4.07;;;3.63;;
6785;SDS011;3430;51.192;6.048;2023-05-02T05:49:24;4.17;;;3.40;;
6785;SDS011;3430;51.192;6.048;2023-05-02T05:51:49;3.97;;;3.57;;
6785;SDS011;3430;51.192;6.048;2023-05-02T05:54:15;4.30;;;3.23;;
6785;SDS011;3430;51.192;6.048;2023-05-02T05:56:40;3.60;;;3.07;;
6785;SDS011;3430;51.192;6.048;2023-05-02T05:59:06;3.63;;;3.33;;
6785;SDS011;3430;51.192;6.048;2023-05-02T06:01:31;4.07;;;3.50;;
6785;SDS011;3430;51.192;6.048;2023-05-02T06:03:56;3.77;;;3.37;;
6785;SDS011;3430;51.192;6.048;2023-05-02T06:06:22;4.20;;;3.50;;
6785;SDS011;3430;51.192;6.048;2023-05-02T06:08:48;3.63;;;3.37;;
6785;SDS011;3430;51.192;6.048;2023-05-02T06:11:13;3.10;;;2.80;;
6785;SDS011;3430;51.192;6.048;2023-05-02T06:13:38;6.07;;;3.40;;
6785;SDS011;3430;51.192;6.048;2023-05-02T06:16:04;3.57;;;3.27;;
6785;SDS011;3430;51.192;6.048;2023-05-02T06:18:29;4.30;;;3.63;;
6785;SDS011;3430;51.192;6.048;2023-05-02T06:20:54;3.20;;;2.90;;
6785;SDS011;3430;51.192;6.048;2023-05-02T06:23:20;3.47;;;3.17;;
6785;SDS011;3430;51.192;6.048;2023-05-02T06:25:45;3.10;;;2.80;;
6785;SDS011;3430;51.192;6.048;2023-05-02T06:28:10;4.33;;;3.33;;
6785;SDS011;3430;51.192;6.048;2023-05-02T06:30:36;3.13;;;2.83;;
6785;SDS011;3430;51.192;6.048;2023-05-02T06:33:04;4.70;;;3.10;;
6785;SDS011;3430;51.192;6.048;2023-05-02T06:35:30;3.67;;;3.30;;
6785;SDS011;3430;51.192;6.048;2023-05-02T06:37:58;2.80;;;2.60;;
6785;SDS011;3430;51.192;6.048;2023-05-02T06:40:23;3.00;;;2.73;;
6785;SDS011;3430;51.192;6.048;2023-05-02T06:42:48;3.50;;;3.20;;
6785;SDS011;3430;51.192;6.048;2023-05-02T06:45:14;3.63;;;3.10;;
6785;SDS011;3430;51.192;6.048;2023-05-02T06:47:39;3.57;;;3.27;;
6785;SDS011;3430;51.192;6.048;2023-05-02T06:50:04;4.80;;;3.30;;
6785;SDS011;3430;51.192;6.048;2023-05-02T06:52:30;5.93;;;3.20;;
6785;SDS011;3430;51.192;6.048;2023-05-02T06:54:55;3.20;;;2.87;;
6785;SDS011;3430;51.192;6.048;2023-05-02T06:57:20;3.30;;;2.93;;
6785;SDS011;3430;51.192;6.048;2023-05-02T06:59:46;4.40;;;3.10;;
6785;SDS011;3430;51.192;6.048;2023-05-02T07:02:11;3.20;;;2.90;;
6785;SDS011;3430;51.192;6.048;2023-05-02T07:04:36;3.10;;;2.80;;
6785;SDS011;3430;51.192;6.048;2023-05-02T07:07:02;3.43;;;3.13;;
6785;SDS011;3430;51.192;6.048;2023-05-02T07:09:28;3.10;;;2.80;;
6785;SDS011;3430;51.192;6.048;2023-05-02T07:11:53;3.30;;;3.00;;
6785;SDS011;3430;51.192;6.048;2023-05-02T07:14:18;3.13;;;2.83;;
6785;SDS011;3430;51.192;6.048;2023-05-02T07:16:44;3.00;;;2.70;;
6785;SDS011;3430;51.192;6.048;2023-05-02T07:19:09;3.33;;;3.03;;
6785;SDS011;3430;51.192;6.048;2023-05-02T07:21:34;3.07;;;2.60;;
6785;SDS011;3430;51.192;6.048;2023-05-02T07:24:00;3.70;;;2.90;;
6785;SDS011;3430;51.192;6.048;2023-05-02T07:26:25;2.70;;;2.50;;
6785;SDS011;3430;51.192;6.048;2023-05-02T07:28:51;2.83;;;2.57;;
6785;SDS011;3430;51.192;6.048;2023-05-02T07:31:16;3.47;;;2.70;;
6785;SDS011;3430;51.192;6.048;2023-05-02T07:33:42;3.27;;;2.70;;
6785;SDS011;3430;51.192;6.048;2023-05-02T07:36:07;4.33;;;3.10;;
6785;SDS011;3430;51.192;6.048;2023-05-02T07:38:32;3.53;;;3.10;;
6785;SDS011;3430;51.192;6.048;2023-05-02T07:40:58;3.27;;;2.73;;
6785;SDS011;3430;51.192;6.048;2023-05-02T07:43:24;2.70;;;2.50;;
6785;SDS011;3430;51.192;6.048;2023-05-02T07:45:50;3.17;;;2.77;;
6785;SDS011;3430;51.192;6.048;2023-05-02T07:48:15;3.43;;;2.93;;
6785;SDS011;3430;51.192;6.048;2023-05-02T07:50:41;3.30;;;3.00;;
6785;SDS011;3430;51.192;6.048;2023-05-02T07:53:06;3.87;;;3.03;;
6785;SDS011;3430;51.192;6.048;2023-05-02T07:55:31;2.97;;;2.43;;
6785;SDS011;3430;51.192;6.048;2023-05-02T07:57:57;4.93;;;2.97;;
6785;SDS011;3430;51.192;6.048;2023-05-02T08:00:22;4.77;;;2.70;;
6785;SDS011;3430;51.192;6.048;2023-05-02T08:02:47;4.27;;;3.00;;
6785;SDS011;3430;51.192;6.048;2023-05-02T08:05:13;4.13;;;2.53;;
6785;SDS011;3430;51.192;6.048;2023-05-02T08:07:38;3.90;;;3.13;;
6785;SDS011;3430;51.192;6.048;2023-05-02T08:10:04;2.83;;;2.63;;
6785;SDS011;3430;51.192;6.048;2023-05-02T08:12:29;3.17;;;2.87;;
6785;SDS011;3430;51.192;6.048;2023-05-02T08:14:55;2.90;;;2.67;;
6785;SDS011;3430;51.192;6.048;2023-05-02T08:17:20;4.93;;;2.70;;
6785;SDS011;3430;51.192;6.048;2023-05-02T08:19:45;3.60;;;2.97;;
6785;SDS011;3430;51.192;6.048;2023-05-02T08:22:11;3.30;;;2.57;;
6785;SDS011;3430;51.192;6.048;2023-05-02T08:24:36;3.07;;;2.87;;
6785;SDS011;3430;51.192;6.048;2023-05-02T08:27:01;3.17;;;2.87;;
6785;SDS011;3430;51.192;6.048;2023-05-02T08:29:31;3.47;;;3.17;;
6785;SDS011;3430;51.192;6.048;2023-05-02T08:31:56;3.37;;;3.07;;
6785;SDS011;3430;51.192;6.048;2023-05-02T08:34:22;3.43;;;2.80;;
6785;SDS011;3430;51.192;6.048;2023-05-02T08:36:47;4.07;;;2.93;;
6785;SDS011;3430;51.192;6.048;2023-05-02T08:39:12;4.00;;;3.53;;
6785;SDS011;3430;51.192;6.048;2023-05-02T08:41:38;3.00;;;2.80;;
6785;SDS011;3430;51.192;6.048;2023-05-02T08:44:04;3.07;;;2.77;;
6785;SDS011;3430;51.192;6.048;2023-05-02T08:46:30;3.60;;;3.10;;
6785;SDS011;3430;51.192;6.048;2023-05-02T08:48:56;3.60;;;3.30;;
6785;SDS011;3430;51.192;6.048;2023-05-02T08:51:25;5.73;;;2.47;;
6785;SDS011;3430;51.192;6.048;2023-05-02T08:53:52;3.63;;;3.00;;
6785;SDS011;3430;51.192;6.048;2023-05-02T08:56:18;2.93;;;2.47;;
6785;SDS011;3430;51.192;6.048;2023-05-02T08:58:44;3.93;;;2.93;;
6785;SDS011;3430;51.192;6.048;2023-05-02T09:01:17;3.00;;;2.70;;
6785;SDS011;3430;51.192;6.048;2023-05-02T09:03:43;3.47;;;2.80;;
6785;SDS011;3430;51.192;6.048;2023-05-02T09:06:13;3.90;;;2.93;;
6785;SDS011;3430;51.192;6.048;2023-05-02T09:08:40;3.63;;;2.80;;
6785;SDS011;3430;51.192;6.048;2023-05-02T09:11:06;7.33;;;3.13;;
6785;SDS011;3430;51.192;6.048;2023-05-02T09:13:33;5.37;;;2.73;;
6785;SDS011;3430;51.192;6.048;2023-05-02T09:16:03;3.70;;;2.93;;
6785;SDS011;3430;51.192;6.048;2023-05-02T09:18:29;4.27;;;2.93;;
6785;SDS011;3430;51.192;6.048;2023-05-02T09:20:56;3.67;;;3.37;;
6785;SDS011;3430;51.192;6.048;2023-05-02T09:23:30;4.43;;;3.03;;
6785;SDS011;3430;51.192;6.048;2023-05-02T09:25:56;7.67;;;3.00;;
6785;SDS011;3430;51.192;6.048;2023-05-02T09:28:35;3.43;;;3.07;;
6785;SDS011;3430;51.192;6.048;2023-05-02T09:31:08;3.17;;;2.87;;
6785;SDS011;3430;51.192;6.048;2023-05-02T09:33:34;3.30;;;3.00;;
6785;SDS011;3430;51.192;6.048;2023-05-02T09:36:00;3.90;;;2.90;;
6785;SDS011;3430;51.192;6.048;2023-05-02T09:38:25;3.87;;;2.90;;
6785;SDS011;3430;51.192;6.048;2023-05-02T09:40:54;3.43;;;3.10;;
6785;SDS011;3430;51.192;6.048;2023-05-02T09:43:20;3.57;;;2.93;;
6785;SDS011;3430;51.192;6.048;2023-05-02T09:45:55;3.37;;;2.80;;
6785;SDS011;3430;51.192;6.048;2023-05-02T09:48:20;3.77;;;3.00;;
6785;SDS011;3430;51.192;6.048;2023-05-02T09:50:45;4.37;;;3.10;;
6785;SDS011;3430;51.192;6.048;2023-05-02T09:53:10;3.63;;;3.30;;
6785;SDS011;3430;51.192;6.048;2023-05-02T09:55:36;4.47;;;3.20;;
6785;SDS011;3430;51.192;6.048;2023-05-02T09:58:01;4.30;;;3.23;;
6785;SDS011;3430;51.192;6.048;2023-05-02T10:00:43;6.30;;;3.13;;
6785;SDS011;3430;51.192;6.048;2023-05-02T10:03:08;3.73;;;2.80;;
6785;SDS011;3430;51.192;6.048;2023-05-02T10:05:38;4.07;;;3.17;;
6785;SDS011;3430;51.192;6.048;2023-05-02T10:08:04;5.73;;;3.57;;
6785;SDS011;3430;51.192;6.048;2023-05-02T10:10:31;3.70;;;3.33;;
6785;SDS011;3430;51.192;6.048;2023-05-02T10:12:56;5.67;;;3.27;;
6785;SDS011;3430;51.192;6.048;2023-05-02T10:15:22;4.47;;;3.37;;
6785;SDS011;3430;51.192;6.048;2023-05-02T10:17:49;3.77;;;3.23;;
6785;SDS011;3430;51.192;6.048;2023-05-02T10:20:18;3.93;;;3.50;;
6785;SDS011;3430;51.192;6.048;2023-05-02T10:22:46;5.77;;;3.47;;
6785;SDS011;3430;51.192;6.048;2023-05-02T10:25:12;3.83;;;3.43;;
6785;SDS011;3430;51.192;6.048;2023-05-02T10:27:38;3.77;;;3.17;;
6785;SDS011;3430;51.192;6.048;2023-05-02T10:30:03;6.23;;;3.43;;
6785;SDS011;3430;51.192;6.048;2023-05-02T10:32:31;3.20;;;2.90;;
6785;SDS011;3430;51.192;6.048;2023-05-02T10:34:56;5.17;;;3.07;;
6785;SDS011;3430;51.192;6.048;2023-05-02T10:37:26;4.37;;;3.03;;
6785;SDS011;3430;51.192;6.048;2023-05-02T10:39:52;3.80;;;3.50;;
6785;SDS011;3430;51.192;6.048;2023-05-02T10:42:18;3.60;;;3.30;;
6785;SDS011;3430;51.192;6.048;2023-05-02T10:44:44;4.43;;;3.40;;
6785;SDS011;3430;51.192;6.048;2023-05-02T10:47:17;4.83;;;3.27;;
6785;SDS011;3430;51.192;6.048;2023-05-02T10:49:52;3.83;;;3.20;;
6785;SDS011;3430;51.192;6.048;2023-05-02T10:52:34;4.30;;;3.63;;
6785;SDS011;3430;51.192;6.048;2023-05-02T11:02:52;3.80;;;3.30;;
6785;SDS011;3430;51.192;6.048;2023-05-02T11:05:17;4.33;;;3.60;;
6785;SDS011;3430;51.192;6.048;2023-05-02T11:07:43;4.17;;;3.47;;
6785;SDS011;3430;51.192;6.048;2023-05-02T11:15:10;3.93;;;3.50;;
6785;SDS011;3430;51.192;6.048;2023-05-02T11:18:17;5.27;;;3.17;;
6785;SDS011;3430;51.192;6.048;2023-05-02T11:20:25;5.63;;;3.40;;
6785;SDS011;3430;51.192;6.048;2023-05-02T11:22:50;5.57;;;3.87;;
6785;SDS011;3430;51.192;6.048;2023-05-02T11:27:54;5.27;;;4.07;;
6785;SDS011;3430;51.192;6.048;2023-05-02T11:30:35;3.97;;;3.53;;
6785;SDS011;3430;51.192;6.048;2023-05-02T11:35:29;12.77;;;4.00;;
6785;SDS011;3430;51.192;6.048;2023-05-02T11:38:02;4.10;;;3.70;;
6785;SDS011;3430;51.192;6.048;2023-05-02T11:40:28;3.80;;;3.50;;
6785;SDS011;3430;51.192;6.048;2023-05-02T11:42:54;3.97;;;3.47;;
6785;SDS011;3430;51.192;6.048;2023-05-02T11:45:19;5.07;;;3.60;;
6785;SDS011;3430;51.192;6.048;2023-05-02T11:47:45;6.03;;;3.70;;
6785;SDS011;3430;51.192;6.048;2023-05-02T11:50:11;4.97;;;3.40;;
6785;SDS011;3430;51.192;6.048;2023-05-02T11:52:37;5.10;;;3.83;;
6785;SDS011;3430;51.192;6.048;2023-05-02T11:55:06;5.17;;;3.53;;
6785;SDS011;3430;51.192;6.048;2023-05-02T11:57:33;4.10;;;3.27;;
6785;SDS011;3430;51.192;6.048;2023-05-02T11:59:59;4.53;;;3.87;;
6785;SDS011;3430;51.192;6.048;2023-05-02T12:02:40;5.73;;;3.63;;
6785;SDS011;3430;51.192;6.048;2023-05-02T12:05:06;4.20;;;3.57;;
6785;SDS011;3430;51.192;6.048;2023-05-02T12:10:01;4.93;;;3.80;;
6785;SDS011;3430;51.192;6.048;2023-05-02T12:12:27;4.87;;;3.63;;
6785;SDS011;3430;51.192;6.048;2023-05-02T12:14:52;4.30;;;3.83;;
6785;SDS011;3430;51.192;6.048;2023-05-02T12:17:18;3.90;;;3.60;;
6785;SDS011;3430;51.192;6.048;2023-05-02T12:19:43;6.57;;;3.53;;
6785;SDS011;3430;51.192;6.048;2023-05-02T12:22:08;4.00;;;3.60;;
6785;SDS011;3430;51.192;6.048;2023-05-02T12:24:34;4.50;;;3.60;;
6785;SDS011;3430;51.192;6.048;2023-05-02T12:27:33;5.37;;;3.73;;
6785;SDS011;3430;51.192;6.048;2023-05-02T12:29:52;4.03;;;3.60;;
6785;SDS011;3430;51.192;6.048;2023-05-02T12:32:27;4.23;;;3.83;;
6785;SDS011;3430;51.192;6.048;2023-05-02T12:34:53;4.37;;;3.70;;
6785;SDS011;3430;51.192;6.048;2023-05-02T12:37:22;3.77;;;3.43;;
6785;SDS011;3430;51.192;6.048;2023-05-02T12:39:48;6.17;;;3.40;;
6785;SDS011;3430;51.192;6.048;2023-05-02T12:42:14;3.80;;;3.50;;
6785;SDS011;3430;51.192;6.048;2023-05-02T12:44:40;4.73;;;3.70;;
6785;SDS011;3430;51.192;6.048;2023-05-02T12:47:06;5.80;;;4.27;;
6785;SDS011;3430;51.192;6.048;2023-05-02T12:49:32;4.83;;;3.70;;
6785;SDS011;3430;51.192;6.048;2023-05-02T12:51:57;5.17;;;4.20;;
6785;SDS011;3430;51.192;6.048;2023-05-02T12:54:23;5.50;;;4.03;;
6785;SDS011;3430;51.192;6.048;2023-05-02T12:56:53;5.23;;;3.90;;
6785;SDS011;3430;51.192;6.048;2023-05-02T12:59:31;4.37;;;3.87;;
6785;SDS011;3430;51.192;6.048;2023-05-02T13:01:56;6.83;;;3.80;;
6785;SDS011;3430;51.192;6.048;2023-05-02T13:07:00;4.60;;;4.03;;
6785;SDS011;3430;51.192;6.048;2023-05-02T13:09:25;6.47;;;4.60;;
6785;SDS011;3430;51.192;6.048;2023-05-02T13:11:51;4.27;;;3.83;;
6785;SDS011;3430;51.192;6.048;2023-05-02T13:14:18;4.60;;;4.13;;
6785;SDS011;3430;51.192;6.048;2023-05-02T13:16:43;5.13;;;3.97;;
6785;SDS011;3430;51.192;6.048;2023-05-02T13:19:08;5.30;;;4.03;;
6785;SDS011;3430;51.192;6.048;2023-05-02T13:21:34;5.63;;;4.07;;
6785;SDS011;3430;51.192;6.048;2023-05-02T13:23:59;4.93;;;3.83;;
6785;SDS011;3430;51.192;6.048;2023-05-02T13:26:25;9.90;;;4.00;;
6785;SDS011;3430;51.192;6.048;2023-05-02T13:28:50;4.93;;;4.23;;
6785;SDS011;3430;51.192;6.048;2023-05-02T13:31:15;6.33;;;4.10;;
6785;SDS011;3430;51.192;6.048;2023-05-02T13:33:41;4.87;;;4.10;;
6785;SDS011;3430;51.192;6.048;2023-05-02T13:36:06;5.70;;;3.80;;
6785;SDS011;3430;51.192;6.048;2023-05-02T13:38:31;4.77;;;4.27;;
6785;SDS011;3430;51.192;6.048;2023-05-02T13:40:57;5.23;;;4.70;;
6785;SDS011;3430;51.192;6.048;2023-05-02T13:43:23;4.27;;;3.87;;
6785;SDS011;3430;51.192;6.048;2023-05-02T13:45:48;4.43;;;4.03;;
6785;SDS011;3430;51.192;6.048;2023-05-02T13:48:13;8.30;;;4.10;;
6785;SDS011;3430;51.192;6.048;2023-05-02T13:50:39;5.07;;;4.17;;
6785;SDS011;3430;51.192;6.048;2023-05-02T13:53:05;4.83;;;4.10;;
6785;SDS011;3430;51.192;6.048;2023-05-02T13:55:30;5.33;;;4.03;;
6785;SDS011;3430;51.192;6.048;2023-05-02T13:57:55;6.37;;;4.03;;
6785;SDS011;3430;51.192;6.048;2023-05-02T14:00:21;6.10;;;4.37;;
6785;SDS011;3430;51.192;6.048;2023-05-02T14:02:46;4.63;;;4.17;;
6785;SDS011;3430;51.192;6.048;2023-05-02T14:05:12;7.03;;;4.83;;
6785;SDS011;3430;51.192;6.048;2023-05-02T14:07:38;4.60;;;4.13;;
6785;SDS011;3430;51.192;6.048;2023-05-02T14:10:03;4.83;;;4.30;;
6785;SDS011;3430;51.192;6.048;2023-05-02T14:12:28;4.20;;;3.80;;
6785;SDS011;3430;51.192;6.048;2023-05-02T14:14:56;5.57;;;4.10;;
6785;SDS011;3430;51.192;6.048;2023-05-02T14:17:21;5.13;;;4.70;;
6785;SDS011;3430;51.192;6.048;2023-05-02T14:19:49;5.73;;;4.37;;
6785;SDS011;3430;51.192;6.048;2023-05-02T14:22:14;8.03;;;3.77;;
6785;SDS011;3430;51.192;6.048;2023-05-02T14:24:40;4.60;;;3.97;;
6785;SDS011;3430;51.192;6.048;2023-05-02T14:27:05;5.50;;;4.73;;
6785;SDS011;3430;51.192;6.048;2023-05-02T14:29:31;4.47;;;4.07;;
6785;SDS011;3430;51.192;6.048;2023-05-02T14:31:56;4.27;;;3.63;;
6785;SDS011;3430;51.192;6.048;2023-05-02T14:34:22;4.97;;;4.00;;
6785;SDS011;3430;51.192;6.048;2023-05-02T14:36:50;4.57;;;4.17;;
6785;SDS011;3430;51.192;6.048;2023-05-02T14:39:16;4.57;;;4.17;;
6785;SDS011;3430;51.192;6.048;2023-05-02T14:41:41;4.90;;;4.40;;
6785;SDS011;3430;51.192;6.048;2023-05-02T14:44:06;5.57;;;4.20;;
6785;SDS011;3430;51.192;6.048;2023-05-02T14:46:32;4.47;;;4.07;;
6785;SDS011;3430;51.192;6.048;2023-05-02T14:49:00;4.77;;;4.27;;
6785;SDS011;3430;51.192;6.048;2023-05-02T14:51:25;4.83;;;3.90;;
6785;SDS011;3430;51.192;6.048;2023-05-02T14:53:50;4.70;;;4.30;;
6785;SDS011;3430;51.192;6.048;2023-05-02T14:56:16;5.67;;;4.20;;
6785;SDS011;3430;51.192;6.048;2023-05-02T14:58:42;6.33;;;4.20;;
6785;SDS011;3430;51.192;6.048;2023-05-02T15:01:15;4.73;;;4.23;;
6785;SDS011;3430;51.192;6.048;2023-05-02T15:03:40;7.30;;;4.20;;
6785;SDS011;3430;51.192;6.048;2023-05-02T15:06:05;6.50;;;4.73;;
6785;SDS011;3430;51.192;6.048;2023-05-02T15:08:31;9.17;;;7.20;;
6785;SDS011;3430;51.192;6.048;2023-05-02T15:10:56;6.67;;;6.00;;
6785;SDS011;3430;51.192;6.048;2023-05-02T15:13:22;5.90;;;5.30;;
6785;SDS011;3430;51.192;6.048;2023-05-02T15:15:47;4.73;;;4.30;;
6785;SDS011;3430;51.192;6.048;2023-05-02T15:18:13;6.87;;;4.93;;
6785;SDS011;3430;51.192;6.048;2023-05-02T15:20:38;6.97;;;4.87;;
6785;SDS011;3430;51.192;6.048;2023-05-02T15:23:03;5.33;;;4.53;;
6785;SDS011;3430;51.192;6.048;2023-05-02T15:25:29;7.67;;;4.90;;
6785;SDS011;3430;51.192;6.048;2023-05-02T15:27:54;5.23;;;4.77;;
6785;SDS011;3430;51.192;6.048;2023-05-02T15:30:20;5.40;;;4.63;;
6785;SDS011;3430;51.192;6.048;2023-05-02T15:32:45;6.33;;;4.10;;
6785;SDS011;3430;51.192;6.048;2023-05-02T15:35:10;5.60;;;5.00;;
6785;SDS011;3430;51.192;6.048;2023-05-02T15:37:36;5.57;;;5.07;;
6785;SDS011;3430;51.192;6.048;2023-05-02T15:40:02;7.53;;;5.23;;
6785;SDS011;3430;51.192;6.048;2023-05-02T15:42:27;6.30;;;5.03;;
6785;SDS011;3430;51.192;6.048;2023-05-02T15:44:53;8.63;;;4.10;;
6785;SDS011;3430;51.192;6.048;2023-05-02T15:47:18;5.67;;;4.30;;
6785;SDS011;3430;51.192;6.048;2023-05-02T15:49:43;6.07;;;5.10;;
6785;SDS011;3430;51.192;6.048;2023-05-02T15:52:08;6.27;;;4.87;;